createdAt,value
2018-07-24T00:00:17.391Z,101365.67
2018-07-24T00:02:47.289Z,101358.32
2018-07-24T00:05:16.966Z,101358.48
2018-07-24T00:07:47.193Z,101361.32
2018-07-24T00:10:17.177Z,101356.48
2018-07-24T00:12:46.732Z,101350.31
2018-07-24T00:15:16.263Z,101346.56
2018-07-24T00:17:45.908Z,101347.19
2018-07-24T00:20:15.700Z,101342.60
2018-07-24T00:22:46.110Z,101345.44
2018-07-24T00:25:15.740Z,101342.37
2018-07-24T00:27:45.604Z,101341.67
2018-07-24T00:30:16.249Z,101343.83
2018-07-24T00:32:46.015Z,101344.65
2018-07-24T00:35:15.874Z,101341.20
2018-07-24T00:37:45.685Z,101333.04
2018-07-24T00:43:47.719Z,101334.64
2018-07-24T00:46:18.089Z,101328.87
2018-07-24T00:48:47.428Z,101326.85
2018-07-24T00:51:16.918Z,101323.12
2018-07-24T00:53:46.388Z,101325.16
2018-07-24T00:56:15.864Z,101319.41
2018-07-24T00:58:45.478Z,101321.42
2018-07-24T01:01:14.943Z,101317.38
2018-07-24T01:03:44.630Z,101322.09
2018-07-24T01:06:14.497Z,101324.64
2018-07-24T01:08:44.055Z,101326.69
2018-07-24T01:11:14.009Z,101328.55
2018-07-24T01:13:43.908Z,101328.98
2018-07-24T01:16:13.519Z,101324.28
2018-07-24T01:18:43.175Z,101325.80
2018-07-24T01:21:15.369Z,101322.07
2018-07-24T01:23:45.439Z,101327.84
2018-07-24T01:26:15.319Z,101325.47
2018-07-24T01:28:45.538Z,101327.84
2018-07-24T01:31:15.109Z,101323.75
2018-07-24T01:33:45.425Z,101324.76
2018-07-24T01:36:15.194Z,101333.17
2018-07-24T01:38:44.852Z,101327.75
2018-07-24T01:41:14.451Z,101320.63
2018-07-24T01:43:43.920Z,101328.60
2018-07-24T01:46:13.470Z,101323.66
2018-07-24T01:48:43.334Z,101322.30
2018-07-24T01:51:12.687Z,101313.29
2018-07-24T01:53:42.603Z,101316.51
2018-07-24T01:56:12.658Z,101314.42
2018-07-24T01:58:42.693Z,101304.34
2018-07-24T02:01:12.137Z,101300.62
2018-07-24T02:03:42.963Z,101301.97
2018-07-24T02:06:13.059Z,101303.64
2018-07-24T02:08:42.789Z,101307.20
2018-07-24T02:11:12.371Z,101298.83
2018-07-24T02:13:44.888Z,101308.47
2018-07-24T02:16:14.372Z,101312.03
2018-07-24T02:18:43.800Z,101309.64
2018-07-24T02:21:13.766Z,101312.13
2018-07-24T02:23:43.857Z,101312.63
2018-07-24T02:26:13.523Z,101307.63
2018-07-24T02:28:43.276Z,101307.16
2018-07-24T02:31:12.985Z,101307.75
2018-07-24T02:33:42.857Z,101306.81
2018-07-24T02:36:12.417Z,101305.05
2018-07-24T02:38:42.074Z,101300.12
2018-07-24T02:41:12.296Z,101301.98
2018-07-24T02:43:42.165Z,101307.72
2018-07-24T02:46:11.664Z,101306.58
2018-07-24T02:48:41.626Z,101307.20
2018-07-24T02:51:11.537Z,101303.04
2018-07-24T02:53:42.104Z,101301.36
2018-07-24T02:56:12.032Z,101298.80
2018-07-24T02:58:41.701Z,101304.26
2018-07-24T03:01:12.334Z,101298.11
2018-07-24T03:03:42.289Z,101301.70
2018-07-24T03:06:12.134Z,101308.86
2018-07-24T03:08:42.448Z,101308.63
2018-07-24T03:11:11.963Z,101299.85
2018-07-24T03:13:41.625Z,101297.30
2018-07-24T03:16:17.421Z,101306.19
2018-07-24T03:18:46.758Z,101309.70
2018-07-24T03:21:16.160Z,101311.64
2018-07-24T03:23:46.975Z,101310.68
2018-07-24T03:26:16.451Z,101318.41
2018-07-24T03:28:46.234Z,101313.27
2018-07-24T03:31:15.769Z,101313.27
2018-07-24T03:33:45.249Z,101318.06
2018-07-24T03:36:15.117Z,101316.47
2018-07-24T03:38:46.257Z,101312.91
2018-07-24T03:41:16.652Z,101312.95
2018-07-24T03:43:47.642Z,101314.15
2018-07-24T03:46:17.511Z,101304.56
2018-07-24T03:48:47.247Z,101309.00
2018-07-24T03:51:17.153Z,101313.97
2018-07-24T03:53:47.160Z,101315.97
2018-07-24T03:56:16.708Z,101310.21
2018-07-24T03:58:47.593Z,101317.20
2018-07-24T04:01:17.316Z,101315.40
2018-07-24T04:03:47.338Z,101314.52
2018-07-24T04:06:19.366Z,101308.70
2018-07-24T04:08:49.856Z,101317.36
2018-07-24T04:11:19.560Z,101319.56
2018-07-24T04:13:49.661Z,101316.86
2018-07-24T04:16:19.171Z,101313.36
2018-07-24T04:18:49.286Z,101316.10
2018-07-24T04:21:20.540Z,101311.34
2018-07-24T04:23:50.106Z,101315.00
2018-07-24T04:26:20.475Z,101308.45
2018-07-24T04:28:50.141Z,101311.66
2018-07-24T04:31:19.417Z,101313.48
2018-07-24T04:33:48.827Z,101314.49
2018-07-24T04:36:20.001Z,101310.30
2018-07-24T04:38:49.419Z,101310.44
2018-07-24T04:41:19.247Z,101318.72
2018-07-24T04:43:48.624Z,101315.23
2018-07-24T04:46:17.866Z,101312.52
2018-07-24T04:48:47.473Z,101312.06
2018-07-24T04:51:16.968Z,101309.20
2018-07-24T04:53:46.838Z,101314.74
2018-07-24T04:56:16.108Z,101313.29
2018-07-24T04:58:46.348Z,101314.33
2018-07-24T05:01:15.989Z,101317.23
2018-07-24T05:03:45.672Z,101316.88
2018-07-24T05:06:15.283Z,101320.86
2018-07-24T05:08:44.865Z,101316.77
2018-07-24T05:11:14.486Z,101313.39
2018-07-24T05:13:44.766Z,101317.89
2018-07-24T05:16:14.523Z,101316.27
2018-07-24T05:18:45.154Z,101312.34
2018-07-24T05:21:16.149Z,101315.48
2018-07-24T05:23:45.632Z,101312.60
2018-07-24T05:26:15.178Z,101311.02
2018-07-24T05:28:46.118Z,101306.05
2018-07-24T05:31:15.879Z,101311.21
2018-07-24T05:33:45.741Z,101315.30
2018-07-24T05:36:15.305Z,101304.70
2018-07-24T05:38:44.923Z,101303.72
2018-07-24T05:41:14.413Z,101310.06
2018-07-24T05:43:44.235Z,101310.10
2018-07-24T05:46:14.049Z,101311.00
2018-07-24T05:48:43.631Z,101309.64
2018-07-24T05:51:14.017Z,101316.80
2018-07-24T05:53:43.738Z,101316.28
2018-07-24T05:56:14.370Z,101315.42
2018-07-24T05:58:44.912Z,101322.25
2018-07-24T06:01:14.915Z,101320.88
2018-07-24T06:03:45.631Z,101320.18
2018-07-24T06:06:15.426Z,101318.66
2018-07-24T06:08:45.490Z,101318.80
2018-07-24T06:11:15.250Z,101327.67
2018-07-24T06:13:45.088Z,101320.48
2018-07-24T06:16:15.032Z,101320.95
2018-07-24T06:18:45.604Z,101325.17
2018-07-24T06:21:15.412Z,101324.81
2018-07-24T06:23:45.260Z,101327.81
2018-07-24T06:26:15.396Z,101333.94
2018-07-24T06:28:45.122Z,101327.45
2018-07-24T06:31:14.761Z,101325.69
2018-07-24T06:33:44.536Z,101331.02
2018-07-24T06:36:14.623Z,101329.56
2018-07-24T06:38:44.468Z,101327.50
2018-07-24T06:41:14.311Z,101317.01
2018-07-24T06:43:43.988Z,101328.16
2018-07-24T06:46:13.779Z,101319.55
2018-07-24T06:48:44.020Z,101326.34
2018-07-24T06:51:13.656Z,101322.01
2018-07-24T06:53:43.635Z,101322.59
2018-07-24T06:56:15.233Z,101324.35
2018-07-24T06:59:06.162Z,101318.85
2018-07-24T07:01:35.608Z,101320.33
2018-07-24T07:04:05.002Z,101318.59
2018-07-24T07:06:34.280Z,101321.70
2018-07-24T07:09:06.358Z,101322.02
2018-07-24T07:11:35.881Z,101315.70
2018-07-24T07:14:06.771Z,101322.95
2018-07-24T07:16:36.381Z,101322.53
2018-07-24T07:19:06.238Z,101325.43
2018-07-24T07:21:35.627Z,101320.70
2018-07-24T07:24:05.054Z,101320.85
2018-07-24T07:26:35.980Z,101319.48
2018-07-24T07:29:05.312Z,101321.56
2018-07-24T07:31:34.592Z,101317.30
2018-07-24T07:34:04.009Z,101322.81
2018-07-24T07:36:33.322Z,101317.26
2018-07-24T07:39:02.602Z,101314.89
2018-07-24T07:41:31.966Z,101317.69
2018-07-24T07:44:01.268Z,101314.05
2018-07-24T07:46:30.665Z,101311.63
2018-07-24T07:49:00.144Z,101309.39
2018-07-24T07:51:30.669Z,101308.70
2018-07-24T07:54:01.346Z,101305.52
2018-07-24T07:56:30.626Z,101295.89
2018-07-24T07:58:59.981Z,101297.98
2018-07-24T08:01:29.276Z,101302.89
2018-07-24T08:03:58.687Z,101298.52
2018-07-24T08:06:31.443Z,101298.39
2018-07-24T08:09:00.743Z,101293.72
2018-07-24T08:11:30.036Z,101291.77
2018-07-24T08:13:59.491Z,101299.64
2018-07-24T08:16:30.150Z,101293.89
2018-07-24T08:18:59.516Z,101291.56
2018-07-24T08:21:29.716Z,101287.45
2018-07-24T08:23:59.190Z,101281.31
2018-07-24T08:26:28.548Z,101286.61
2018-07-24T08:28:58.012Z,101277.13
2018-07-24T08:31:27.612Z,101278.00
2018-07-24T08:33:57.161Z,101280.71
2018-07-24T08:36:26.970Z,101283.83
2018-07-24T08:38:57.498Z,101281.77
2018-07-24T08:41:27.167Z,101279.10
2018-07-24T08:43:57.496Z,101284.19
2018-07-24T08:46:26.900Z,101276.45
2018-07-24T08:48:56.337Z,101277.70
2018-07-24T08:51:25.677Z,101272.50
2018-07-24T08:53:55.242Z,101284.08
2018-07-24T08:56:24.283Z,101278.30
2018-07-24T08:58:54.281Z,101276.08
2018-07-24T09:01:23.886Z,101271.67
2018-07-24T09:03:53.674Z,101277.78
2018-07-24T09:06:23.599Z,101288.83
2018-07-24T09:08:53.143Z,101281.86
2018-07-24T09:11:22.671Z,101280.91
2018-07-24T09:13:55.426Z,101277.25
2018-07-24T09:16:25.069Z,101278.83
2018-07-24T09:18:54.393Z,101280.20
2018-07-24T09:21:23.960Z,101283.71
2018-07-24T09:23:53.550Z,101284.05
2018-07-24T09:26:23.570Z,101285.13
2018-07-24T09:28:54.038Z,101292.20
2018-07-24T09:31:24.560Z,101283.97
2018-07-24T09:33:54.245Z,101287.27
2018-07-24T09:36:24.781Z,101282.09
2018-07-24T09:38:54.471Z,101291.33
2018-07-24T09:41:24.153Z,101275.88
2018-07-24T09:43:55.022Z,101274.45
2018-07-24T09:46:24.594Z,101275.03
2018-07-24T09:48:54.413Z,101263.20
2018-07-24T09:51:24.138Z,101270.68
2018-07-24T09:53:54.027Z,101261.83
2018-07-24T09:56:23.654Z,101269.86
2018-07-24T09:58:53.753Z,101266.92
2018-07-24T10:01:28.375Z,101269.56
2018-07-24T10:03:57.646Z,101265.01
2018-07-24T10:06:26.984Z,101263.23
2018-07-24T10:08:56.276Z,101273.97
2018-07-24T10:11:25.742Z,101268.53
2018-07-24T10:13:55.884Z,101269.28
2018-07-24T10:16:25.268Z,101268.48
2018-07-24T10:18:54.585Z,101259.47
2018-07-24T10:21:24.026Z,101260.02
2018-07-24T10:23:53.300Z,101263.47
2018-07-24T10:26:23.015Z,101271.13
2018-07-24T10:28:52.306Z,101262.11
2018-07-24T10:31:21.798Z,101266.41
2018-07-24T10:33:51.898Z,101252.19
2018-07-24T10:36:21.380Z,101261.65
2018-07-24T10:38:51.808Z,101253.32
2018-07-24T10:41:21.866Z,101254.37
2018-07-24T10:43:51.274Z,101254.06
2018-07-24T10:46:21.422Z,101258.08
2018-07-24T10:48:50.901Z,101243.13
2018-07-24T10:51:20.830Z,101253.73
2018-07-24T10:53:50.784Z,101248.52
2018-07-24T10:56:20.978Z,101244.62
2018-07-24T10:58:50.505Z,101238.66
2018-07-24T11:01:20.089Z,101244.82
2018-07-24T11:03:50.741Z,101237.63
2018-07-24T11:06:20.314Z,101237.88
2018-07-24T11:08:49.860Z,101241.34
2018-07-24T11:11:19.747Z,101241.44
2018-07-24T11:13:49.372Z,101236.20
2018-07-24T11:16:19.165Z,101225.91
2018-07-24T11:18:48.793Z,101232.53
2018-07-24T11:21:18.598Z,101228.50
2018-07-24T11:23:48.219Z,101231.22
2018-07-24T11:26:18.159Z,101222.33
2018-07-24T11:28:48.021Z,101228.05
2018-07-24T11:31:17.697Z,101229.39
2018-07-24T11:33:47.277Z,101221.12
2018-07-24T11:36:17.764Z,101219.67
2018-07-24T11:38:47.550Z,101219.85
2018-07-24T11:41:17.525Z,101209.45
2018-07-24T11:43:47.334Z,101211.23
2018-07-24T11:46:18.425Z,101206.05
2018-07-24T11:48:48.298Z,101212.21
2018-07-24T11:51:17.825Z,101209.41
2018-07-24T11:53:47.552Z,101208.97
2018-07-24T11:56:17.623Z,101204.26
2018-07-24T11:58:47.639Z,101208.78
2018-07-24T12:01:17.350Z,101204.55
2018-07-24T12:03:47.124Z,101209.56
2018-07-24T12:06:16.915Z,101202.87
2018-07-24T12:08:47.518Z,101203.45
2018-07-24T12:11:17.105Z,101202.65
2018-07-24T12:13:46.770Z,101197.20
2018-07-24T12:16:16.352Z,101208.47
2018-07-24T12:18:46.825Z,101195.17
2018-07-24T12:21:16.438Z,101192.64
2018-07-24T12:23:46.411Z,101187.34
2018-07-24T12:26:16.151Z,101181.50
2018-07-24T12:28:45.841Z,101183.98
2018-07-24T12:31:15.448Z,101189.71
2018-07-24T12:33:45.084Z,101183.47
2018-07-24T12:36:15.216Z,101185.27
2018-07-24T12:38:45.946Z,101178.03
2018-07-24T12:41:16.601Z,101178.80
2018-07-24T12:43:46.259Z,101173.95
2018-07-24T12:46:15.981Z,101167.00
2018-07-24T12:48:45.519Z,101164.75
2018-07-24T12:51:15.391Z,101161.34
2018-07-24T12:53:45.054Z,101150.30
2018-07-24T12:56:15.909Z,101160.94
2018-07-24T12:58:45.683Z,101162.47
2018-07-24T13:01:15.299Z,101161.71
2018-07-24T13:03:45.981Z,101162.23
2018-07-24T13:06:16.009Z,101161.34
2018-07-24T13:08:45.643Z,101163.72
2018-07-24T13:11:15.635Z,101152.92
2018-07-24T13:13:45.153Z,101149.84
2018-07-24T13:16:15.280Z,101144.41
2018-07-24T13:18:45.013Z,101143.55
2018-07-24T13:21:14.692Z,101140.07
2018-07-24T13:23:44.203Z,101141.17
2018-07-24T13:26:13.846Z,101148.53
2018-07-24T13:28:43.617Z,101141.55
2018-07-24T13:31:13.455Z,101137.15
2018-07-24T13:33:43.270Z,101139.95
2018-07-24T13:36:13.067Z,101135.76
2018-07-24T13:38:42.852Z,101126.14
2018-07-24T13:41:12.486Z,101121.52
2018-07-24T13:43:42.375Z,101120.75
2018-07-24T13:46:13.818Z,101124.08
2018-07-24T13:48:43.638Z,101123.69
2018-07-24T13:51:13.629Z,101125.33
2018-07-24T13:53:44.082Z,101125.53
2018-07-24T13:56:14.043Z,101119.90
2018-07-24T13:58:44.660Z,101114.88
2018-07-24T14:01:14.653Z,101117.44
2018-07-24T14:03:44.754Z,101117.35
2018-07-24T14:06:14.874Z,101126.38
2018-07-24T14:08:44.914Z,101118.48
2018-07-24T14:11:14.650Z,101112.55
2018-07-24T14:13:45.854Z,101115.25
2018-07-24T14:16:16.275Z,101119.84
2018-07-24T14:18:45.985Z,101115.69
2018-07-24T14:21:16.741Z,101113.01
2018-07-24T14:23:46.895Z,101107.69
2018-07-24T14:26:16.685Z,101111.49
2018-07-24T14:28:46.878Z,101113.94
2018-07-24T14:31:18.746Z,101110.28
2018-07-24T14:33:49.394Z,101104.19
2018-07-24T14:36:19.245Z,101109.56
2018-07-24T14:38:49.298Z,101115.75
2018-07-24T14:41:20.057Z,101125.15
2018-07-24T14:43:49.998Z,101119.73
2018-07-24T14:46:19.598Z,101124.91
2018-07-24T14:48:49.792Z,101134.03
2018-07-24T14:51:19.678Z,101129.08
2018-07-24T14:53:49.512Z,101136.09
2018-07-24T14:56:20.041Z,101125.55
2018-07-24T14:58:49.982Z,101124.52
2018-07-24T15:01:20.130Z,101128.70
2018-07-24T15:03:50.386Z,101120.75
2018-07-24T15:06:20.988Z,101121.23
2018-07-24T15:08:50.923Z,101127.67
2018-07-24T15:11:20.839Z,101124.20
2018-07-24T15:13:50.523Z,101125.43
2018-07-24T15:16:20.440Z,101123.19
2018-07-24T15:18:50.387Z,101121.69
2018-07-24T15:21:19.945Z,101117.81
2018-07-24T15:23:49.984Z,101122.20
2018-07-24T15:26:20.357Z,101117.75
2018-07-24T15:28:52.013Z,101121.56
2018-07-24T15:31:22.291Z,101116.14
2018-07-24T15:33:52.689Z,101120.59
2018-07-24T15:36:22.348Z,101123.67
2018-07-24T15:38:52.168Z,101118.89
2018-07-24T15:41:22.284Z,101122.45
2018-07-24T15:43:52.684Z,101121.28
2018-07-24T15:46:22.127Z,101114.83
2018-07-24T15:48:51.719Z,101118.22
2018-07-24T15:51:22.404Z,101125.56
2018-07-24T15:53:52.869Z,101123.23
2018-07-24T15:56:22.358Z,101110.95
2018-07-24T15:58:52.886Z,101120.05
2018-07-24T16:01:22.651Z,101123.64
2018-07-24T16:03:52.425Z,101122.97
2018-07-24T16:06:22.193Z,101118.46
2018-07-24T16:08:52.161Z,101120.30
2018-07-24T16:11:22.019Z,101121.46
2018-07-24T16:13:52.090Z,101121.34
2018-07-24T16:16:22.213Z,101119.57
2018-07-24T16:18:51.965Z,101122.75
2018-07-24T16:21:22.549Z,101123.77
2018-07-24T16:23:52.808Z,101123.07
2018-07-24T16:26:31.304Z,101116.02
2018-07-24T16:29:00.696Z,101125.84
2018-07-24T16:31:30.204Z,101122.62
2018-07-24T16:33:59.786Z,101124.77
2018-07-24T16:36:30.288Z,101117.03
2018-07-24T16:38:59.618Z,101115.80
2018-07-24T16:41:29.063Z,101118.16
2018-07-24T16:43:58.611Z,101111.64
2018-07-24T16:46:27.869Z,101109.73
2018-07-24T16:48:57.337Z,101103.02
2018-07-24T16:51:27.223Z,101109.55
2018-07-24T16:53:56.725Z,101104.94
2018-07-24T16:56:27.015Z,101101.20
2018-07-24T16:58:56.493Z,101111.09
2018-07-24T17:01:25.931Z,101111.56
2018-07-24T17:03:56.496Z,101111.17
2018-07-24T17:06:26.203Z,101110.22
2018-07-24T17:08:55.765Z,101104.13
2018-07-24T17:11:25.181Z,101107.50
2018-07-24T17:13:54.761Z,101104.75
2018-07-24T17:16:24.090Z,101106.73
2018-07-24T17:18:54.263Z,101110.03
2018-07-24T17:21:23.586Z,101103.07
2018-07-24T17:23:53.183Z,101103.38
2018-07-24T17:26:23.903Z,101101.82
2018-07-24T17:28:53.540Z,101099.83
2018-07-24T17:31:23.181Z,101100.44
2018-07-24T17:33:53.528Z,101102.84
2018-07-24T17:36:23.067Z,101103.53
2018-07-24T17:38:53.076Z,101096.48
2018-07-24T17:41:23.254Z,101096.75
2018-07-24T17:43:53.293Z,101098.97
2018-07-24T17:46:22.979Z,101101.35
2018-07-24T17:48:53.349Z,101106.61
2018-07-24T17:51:22.965Z,101100.34
2018-07-24T17:53:52.561Z,101103.02
2018-07-24T17:56:22.083Z,101107.64
2018-07-24T17:58:51.717Z,101110.80
2018-07-24T18:01:21.205Z,101112.92
2018-07-24T18:03:51.982Z,101101.53
2018-07-24T18:06:21.897Z,101113.36
2018-07-24T18:08:52.247Z,101112.94
2018-07-24T18:11:22.023Z,101110.30
2018-07-24T18:13:51.952Z,101118.89
2018-07-24T18:16:21.784Z,101117.87
2018-07-24T18:18:51.486Z,101120.41
2018-07-24T18:21:21.909Z,101118.67
2018-07-24T18:23:52.349Z,101120.84
2018-07-24T18:26:21.714Z,101121.24
2018-07-24T18:28:51.572Z,101123.72
2018-07-24T18:31:23.045Z,101127.91
2018-07-24T18:33:52.620Z,101127.80
2018-07-24T18:36:22.007Z,101129.09
2018-07-24T18:38:53.461Z,101116.54
2018-07-24T18:41:23.363Z,101120.84
2018-07-24T18:43:52.716Z,101126.47
2018-07-24T18:46:23.112Z,101133.69
2018-07-24T18:48:53.396Z,101123.41
2018-07-24T18:51:22.939Z,101128.86
2018-07-24T18:53:52.515Z,101126.06
2018-07-24T18:56:22.302Z,101125.53
2018-07-24T18:58:52.102Z,101121.19
2018-07-24T19:01:22.136Z,101129.38
2018-07-24T19:03:52.661Z,101131.87
2018-07-24T19:06:22.296Z,101132.29
2018-07-24T19:08:52.959Z,101140.12
2018-07-24T19:11:22.528Z,101134.92
2018-07-24T19:13:52.220Z,101134.30
2018-07-24T19:16:22.873Z,101133.40
2018-07-24T19:18:52.985Z,101141.78
2018-07-24T19:21:22.825Z,101148.69
2018-07-24T19:23:52.612Z,101146.48
2018-07-24T19:26:22.092Z,101145.94
2018-07-24T19:28:51.733Z,101149.76
2018-07-24T19:31:23.003Z,101151.80
2018-07-24T19:33:52.474Z,101153.27
2018-07-24T19:36:22.240Z,101153.52
2018-07-24T19:38:52.132Z,101154.67
2018-07-24T19:41:22.039Z,101155.95
2018-07-24T19:43:54.680Z,101156.17
2018-07-24T19:46:27.129Z,101155.30
2018-07-24T19:49:00.903Z,101160.17
2018-07-24T19:51:30.274Z,101158.80
2018-07-24T19:54:01.196Z,101165.23
2018-07-24T19:56:32.881Z,101164.73
2018-07-24T19:59:02.648Z,101161.34
2018-07-24T20:01:32.744Z,101163.55
2018-07-24T20:04:02.510Z,101171.06
2018-07-24T20:06:39.688Z,101166.20
2018-07-24T20:09:12.542Z,101168.94
2018-07-24T20:11:43.116Z,101168.00
2018-07-24T20:14:14.391Z,101169.14
2018-07-24T20:16:44.517Z,101165.87
2018-07-24T20:19:14.710Z,101170.20
2018-07-24T20:21:44.498Z,101176.53
2018-07-24T20:24:15.537Z,101174.64
2018-07-24T20:26:46.042Z,101176.00
2018-07-24T20:29:17.109Z,101174.64
2018-07-24T20:31:49.242Z,101174.20
2018-07-24T20:34:19.337Z,101175.16
2018-07-24T20:36:49.881Z,101175.22
2018-07-24T20:39:19.572Z,101177.62
2018-07-24T20:41:49.805Z,101173.91
2018-07-24T20:44:19.567Z,101173.56
2018-07-24T20:46:49.303Z,101173.69
2018-07-24T20:49:21.708Z,101170.08
2018-07-24T20:51:51.827Z,101163.30
2018-07-24T20:54:21.525Z,101173.10
2018-07-24T20:56:51.840Z,101173.88
2018-07-24T20:59:22.154Z,101173.06
2018-07-24T21:01:51.662Z,101177.14
2018-07-24T21:04:22.358Z,101177.45
2018-07-24T21:06:52.044Z,101171.16
2018-07-24T21:09:21.982Z,101177.06
2018-07-24T21:11:52.252Z,101178.73
2018-07-24T21:14:22.473Z,101177.02
2018-07-24T21:16:52.076Z,101177.48
2018-07-24T21:19:22.013Z,101182.20
2018-07-24T21:21:53.682Z,101175.91
2018-07-24T21:24:23.368Z,101178.30
2018-07-24T21:26:52.717Z,101180.20
2018-07-24T21:29:23.714Z,101176.92
2018-07-24T21:31:53.204Z,101173.91
2018-07-24T21:34:22.632Z,101180.12
2018-07-24T21:36:52.943Z,101179.58
2018-07-24T21:39:22.651Z,101177.95
2018-07-24T21:41:52.356Z,101185.60
2018-07-24T21:44:22.181Z,101176.63
2018-07-24T21:46:52.155Z,101179.00
2018-07-24T21:49:22.285Z,101183.44
2018-07-24T21:51:53.037Z,101178.89
2018-07-24T21:54:22.821Z,101180.20
2018-07-24T21:56:53.374Z,101174.07
2018-07-24T21:59:24.158Z,101176.55
2018-07-24T22:01:53.489Z,101176.22
2018-07-24T22:04:22.914Z,101179.95
2018-07-24T22:06:53.798Z,101179.42
2018-07-24T22:09:23.371Z,101177.16
2018-07-24T22:11:52.917Z,101183.85
2018-07-24T22:14:22.549Z,101176.16
2018-07-24T22:16:52.318Z,101177.41
2018-07-24T22:19:22.246Z,101179.92
2018-07-24T22:21:52.190Z,101169.95
2018-07-24T22:24:21.881Z,101177.11
2018-07-24T22:26:51.532Z,101172.09
2018-07-24T22:29:21.102Z,101173.43
2018-07-24T22:31:51.012Z,101172.59
2018-07-24T22:34:20.341Z,101170.83
2018-07-24T22:36:50.620Z,101172.59
2018-07-24T22:39:20.017Z,101168.81
2018-07-24T22:41:49.317Z,101165.23
2018-07-24T22:47:10.782Z,101169.58
2018-07-24T22:49:40.490Z,101177.03
2018-07-24T22:52:10.824Z,101171.76
2018-07-24T22:54:41.126Z,101175.06
2018-07-24T22:57:11.310Z,101183.11
2018-07-24T22:59:41.442Z,101189.95
2018-07-24T23:02:11.829Z,101180.77
2018-07-24T23:04:41.510Z,101184.52
2018-07-24T23:07:11.167Z,101181.86
2018-07-24T23:09:41.242Z,101182.30
2018-07-24T23:12:10.922Z,101183.81
2018-07-24T23:14:40.485Z,101181.01
2018-07-24T23:17:10.389Z,101187.84
2018-07-24T23:19:40.972Z,101182.63
2018-07-24T23:22:10.668Z,101176.14
2018-07-24T23:24:40.342Z,101181.94
2018-07-24T23:27:11.228Z,101175.66
2018-07-24T23:29:41.195Z,101181.43
2018-07-24T23:32:11.001Z,101175.07
2018-07-24T23:34:41.137Z,101174.21
2018-07-24T23:37:11.282Z,101177.09
2018-07-24T23:39:41.168Z,101177.22
2018-07-24T23:42:11.181Z,101174.62
2018-07-24T23:44:41.122Z,101174.30
2018-07-24T23:47:11.454Z,101176.44
2018-07-24T23:49:41.385Z,101169.73
2018-07-24T23:52:11.600Z,101181.02
2018-07-24T23:54:41.632Z,101180.78
2018-07-24T23:57:11.628Z,101180.50
2018-07-24T23:59:41.718Z,101167.92
